createdAt,value
2023-11-05T00:00:00.540Z,85.6
2023-11-05T00:05:00.548Z,86.0
2023-11-05T00:10:00.580Z,85.7
2023-11-05T00:15:00.533Z,86.0
2023-11-05T00:20:00.527Z,87.2
2023-11-05T00:25:00.500Z,87.1
2023-11-05T00:30:00.494Z,88.4
2023-11-05T00:35:00.607Z,90.2
2023-11-05T00:40:03.315Z,93.8
2023-11-05T00:45:00.481Z,95.4
2023-11-05T00:50:00.533Z,95.7
2023-11-05T00:55:00.473Z,95.6
2023-11-05T01:00:00.498Z,95.8
2023-11-05T01:05:00.630Z,94.6
2023-11-05T01:10:00.569Z,94.4
2023-11-05T01:15:00.476Z,94.4
2023-11-05T01:20:00.495Z,94.3
2023-11-05T01:25:00.560Z,94.3
2023-11-05T01:30:00.489Z,94.2
2023-11-05T01:35:00.554Z,95.0
2023-11-05T01:40:00.512Z,94.7
2023-11-05T01:45:00.531Z,95.7
2023-11-05T01:50:00.540Z,96.5
2023-11-05T01:55:00.484Z,95.9
2023-11-05T02:00:00.458Z,95.9
2023-11-05T02:05:00.883Z,96.1
2023-11-05T02:10:00.502Z,96.4
2023-11-05T02:15:00.464Z,96.3
2023-11-05T02:20:00.649Z,96.8
2023-11-05T02:25:00.592Z,97.1
2023-11-05T02:30:00.457Z,96.9
2023-11-05T02:35:00.556Z,96.7
2023-11-05T02:40:00.505Z,96.9
2023-11-05T02:45:00.470Z,96.4
2023-11-05T02:50:00.495Z,97.0
2023-11-05T02:55:00.523Z,97.1
2023-11-05T03:00:00.479Z,96.7
2023-11-05T03:05:00.649Z,97.5
2023-11-05T03:10:00.505Z,97.2
2023-11-05T03:15:00.465Z,97.2
2023-11-05T03:20:00.490Z,97.5
2023-11-05T03:25:00.517Z,97.4
2023-11-05T03:30:00.489Z,97.7
2023-11-05T03:35:00.494Z,97.5
2023-11-05T03:40:00.548Z,97.8
2023-11-05T03:45:00.626Z,97.1
2023-11-05T03:50:00.545Z,97.4
2023-11-05T03:55:00.471Z,97.3
2023-11-05T04:00:01.590Z,97.8
2023-11-05T04:05:00.472Z,97.6
2023-11-05T04:10:00.475Z,97.0
2023-11-05T04:15:00.493Z,96.7
2023-11-05T04:20:00.479Z,97.9
2023-11-05T04:25:00.465Z,97.9
2023-11-05T04:30:00.489Z,97.2
2023-11-05T04:35:00.473Z,97.0
2023-11-05T04:40:00.482Z,97.1
2023-11-05T04:45:00.476Z,97.3
2023-11-05T04:50:00.507Z,97.3
2023-11-05T04:55:00.467Z,97.0
2023-11-05T05:00:00.495Z,96.7
2023-11-05T05:05:00.662Z,97.4
2023-11-05T05:10:00.463Z,97.5
2023-11-05T05:15:00.472Z,97.5
2023-11-05T05:20:00.509Z,97.4
2023-11-05T05:25:00.530Z,97.8
2023-11-05T05:30:00.527Z,97.6
2023-11-05T05:35:00.471Z,97.5
2023-11-05T05:40:00.498Z,97.3
2023-11-05T05:45:00.536Z,97.3
2023-11-05T05:50:00.456Z,96.6
2023-11-05T05:55:00.488Z,96.9
2023-11-05T06:00:00.490Z,96.1
2023-11-05T06:05:00.468Z,96.2
2023-11-05T06:10:00.478Z,96.3
2023-11-05T06:15:08.629Z,96.6
2023-11-05T06:20:00.469Z,96.0
2023-11-05T06:25:00.483Z,96.8
2023-11-05T06:30:00.664Z,96.3
2023-11-05T06:35:01.207Z,96.4
2023-11-05T06:40:00.485Z,96.0
2023-11-05T06:45:00.480Z,96.3
2023-11-05T06:50:00.539Z,96.1
2023-11-05T06:55:00.480Z,96.1
2023-11-05T07:00:00.513Z,96.5
2023-11-05T07:05:00.586Z,96.4
2023-11-05T07:10:00.452Z,96.5
2023-11-05T07:15:00.478Z,98.0
2023-11-05T07:20:00.504Z,98.6
2023-11-05T07:25:00.472Z,98.5
2023-11-05T07:30:00.491Z,98.4
2023-11-05T07:35:00.497Z,98.1
2023-11-05T07:40:00.525Z,97.8
2023-11-05T07:45:00.484Z,97.9
2023-11-05T07:50:00.458Z,97.9
2023-11-05T07:55:00.478Z,97.4
2023-11-05T08:00:00.529Z,97.1
2023-11-05T08:05:00.596Z,97.2
2023-11-05T08:10:00.473Z,97.2
2023-11-05T08:15:00.553Z,96.9
2023-11-05T08:20:00.536Z,96.8
2023-11-05T08:25:00.474Z,97.4
2023-11-05T08:30:00.523Z,97.5
2023-11-05T08:35:00.468Z,97.4
2023-11-05T08:40:00.461Z,97.6
2023-11-05T08:45:00.488Z,97.4
2023-11-05T08:50:00.470Z,96.9
2023-11-05T08:55:00.492Z,97.5
2023-11-05T09:00:00.549Z,97.4
2023-11-05T09:05:00.510Z,97.9
2023-11-05T09:10:00.483Z,98.0
2023-11-05T09:15:00.653Z,97.4
2023-11-05T09:20:00.468Z,98.3
2023-11-05T09:25:00.461Z,98.4
2023-11-05T09:30:00.515Z,98.7
2023-11-05T09:35:00.572Z,99.4
2023-11-05T09:40:00.456Z,99.4
2023-11-05T09:45:00.486Z,99.8
2023-11-05T09:50:00.503Z,99.5
2023-11-05T09:55:00.473Z,100.0
2023-11-05T10:00:00.558Z,100.0
2023-11-05T10:05:00.522Z,100.0
2023-11-05T10:10:00.466Z,100.0
2023-11-05T10:15:00.490Z,100.0
2023-11-05T10:20:00.520Z,100.0
2023-11-05T10:25:00.490Z,100.0
2023-11-05T10:30:00.500Z,100.0
2023-11-05T10:35:00.509Z,100.0
2023-11-05T10:40:00.518Z,100.0
2023-11-05T10:45:00.485Z,100.0
2023-11-05T10:50:00.568Z,100.0
2023-11-05T10:55:00.501Z,100.0
2023-11-05T11:00:00.573Z,100.0
2023-11-05T11:05:00.683Z,100.0
2023-11-05T11:10:00.468Z,100.0
2023-11-05T11:15:00.500Z,100.0
2023-11-05T11:20:00.494Z,100.0
2023-11-05T11:25:00.469Z,100.0
2023-11-05T11:30:00.492Z,100.0
2023-11-05T11:35:00.488Z,100.0
2023-11-05T11:40:00.512Z,100.0
2023-11-05T11:45:00.503Z,100.0
2023-11-05T11:50:00.492Z,100.0
2023-11-05T11:55:00.477Z,100.0
2023-11-05T12:00:00.485Z,100.0
2023-11-05T12:05:00.562Z,100.0
2023-11-05T12:10:00.468Z,100.0
2023-11-05T12:15:00.500Z,99.0
2023-11-05T12:20:00.525Z,99.1
2023-11-05T12:25:00.467Z,99.3
2023-11-05T12:30:00.527Z,100.0
2023-11-05T12:35:00.543Z,100.0
2023-11-05T12:40:00.501Z,100.0
2023-11-05T12:45:00.564Z,100.0
2023-11-05T12:50:00.492Z,99.8
2023-11-05T12:55:00.483Z,99.3
2023-11-05T13:00:00.531Z,99.4
2023-11-05T13:05:00.711Z,98.9
2023-11-05T13:10:00.530Z,99.3
2023-11-05T13:15:00.655Z,99.3
2023-11-05T13:20:00.497Z,99.4
2023-11-05T13:25:00.481Z,98.8
2023-11-05T13:30:00.501Z,98.7
2023-11-05T13:35:00.526Z,98.5
2023-11-05T13:40:00.460Z,98.5
2023-11-05T13:45:00.476Z,98.1
2023-11-05T13:50:00.516Z,97.6
2023-11-05T13:55:00.485Z,96.2
2023-11-05T14:00:00.490Z,96.6
2023-11-05T14:05:00.527Z,96.1
2023-11-05T14:10:00.473Z,96.1
2023-11-05T14:15:00.486Z,96.5
2023-11-05T14:20:00.546Z,96.2
2023-11-05T14:25:00.475Z,96.0
2023-11-05T14:30:00.480Z,97.0
2023-11-05T14:35:00.486Z,95.9
2023-11-05T14:40:00.463Z,96.2
2023-11-05T14:45:01.978Z,96.6
2023-11-05T14:50:00.498Z,96.7
2023-11-05T14:55:00.487Z,96.2
2023-11-05T15:00:00.511Z,95.3
2023-11-05T15:05:00.557Z,94.4
2023-11-05T15:10:00.479Z,94.3
2023-11-05T15:15:00.483Z,94.1
2023-11-05T15:20:00.597Z,94.3
2023-11-05T15:25:00.517Z,94.4
2023-11-05T15:30:00.490Z,94.5
2023-11-05T15:35:00.688Z,94.9
2023-11-05T15:40:00.485Z,95.6
2023-11-05T15:45:00.491Z,95.5
2023-11-05T15:50:00.568Z,95.9
2023-11-05T15:55:00.467Z,95.8
2023-11-05T16:00:00.692Z,96.1
2023-11-05T16:05:00.591Z,96.3
2023-11-05T16:10:00.478Z,96.4
2023-11-05T16:15:00.481Z,96.9
2023-11-05T16:20:00.614Z,96.2
2023-11-05T16:25:00.478Z,96.1
2023-11-05T16:30:00.593Z,95.7
2023-11-05T16:35:00.585Z,95.5
2023-11-05T16:40:00.490Z,96.1
2023-11-05T16:45:00.482Z,96.5
2023-11-05T16:50:00.594Z,96.3
2023-11-05T16:55:00.466Z,96.5
2023-11-05T17:00:00.522Z,95.9
2023-11-05T17:05:00.512Z,96.5
2023-11-05T17:10:00.493Z,97.1
2023-11-05T17:15:00.484Z,96.5
2023-11-05T17:20:00.517Z,96.3
2023-11-05T17:25:00.501Z,95.8
2023-11-05T17:30:00.501Z,95.9
2023-11-05T17:35:00.491Z,96.4
2023-11-05T17:40:00.504Z,95.8
2023-11-05T17:45:00.495Z,96.1
2023-11-05T17:50:00.488Z,96.5
2023-11-05T17:55:00.468Z,98.1
2023-11-05T18:00:00.709Z,98.7
2023-11-05T18:05:00.542Z,98.3
2023-11-05T18:10:00.482Z,96.6
2023-11-05T18:15:00.536Z,95.1
2023-11-05T18:20:00.541Z,95.5
2023-11-05T18:25:00.455Z,95.9
2023-11-05T18:30:00.508Z,95.9
2023-11-05T18:35:00.555Z,96.5
2023-11-05T18:40:00.512Z,96.4
2023-11-05T18:45:00.495Z,96.1
2023-11-05T18:50:00.496Z,95.7
2023-11-05T18:55:00.495Z,95.8
2023-11-05T19:00:00.487Z,95.8
2023-11-05T19:05:00.536Z,95.5
2023-11-05T19:10:00.472Z,95.6
2023-11-05T19:15:00.488Z,95.3
2023-11-05T19:20:00.508Z,95.3
2023-11-05T19:25:00.487Z,95.1
2023-11-05T19:30:00.478Z,94.5
2023-11-05T19:35:00.492Z,94.6
2023-11-05T19:40:00.505Z,94.9
2023-11-05T19:45:00.482Z,94.7
2023-11-05T19:50:00.795Z,94.9
2023-11-05T19:55:00.490Z,95.5
2023-11-05T20:00:00.596Z,95.8
2023-11-05T20:05:00.675Z,96.7
2023-11-05T20:10:00.478Z,99.5
2023-11-05T20:15:00.643Z,100.0
2023-11-05T20:20:00.541Z,100.0
2023-11-05T20:25:00.471Z,98.6
2023-11-05T20:30:00.507Z,98.4
2023-11-05T20:35:00.506Z,98.6
2023-11-05T20:40:00.476Z,98.9
2023-11-05T20:45:02.507Z,99.5
2023-11-05T20:50:00.532Z,99.2
2023-11-05T20:55:00.464Z,98.3
2023-11-05T21:05:00.607Z,98.1
2023-11-05T21:10:00.438Z,98.0
2023-11-05T21:15:00.415Z,98.2
2023-11-05T21:20:00.680Z,98.5
2023-11-05T21:25:00.592Z,98.6
2023-11-05T21:30:00.637Z,98.0
2023-11-05T21:40:00.662Z,97.5
2023-11-05T21:45:00.593Z,97.3
2023-11-05T21:50:00.627Z,98.4
2023-11-05T21:55:00.646Z,98.8
2023-11-05T22:00:00.608Z,100.0
2023-11-05T22:05:00.736Z,99.8
2023-11-05T22:10:00.325Z,99.1
2023-11-05T22:15:00.184Z,98.5
2023-11-05T22:20:00.405Z,98.5
2023-11-05T22:35:00.756Z,96.0
2023-11-05T22:40:00.600Z,95.6
2023-11-05T22:45:00.601Z,95.3
2023-11-05T22:50:00.665Z,95.4
2023-11-05T22:55:00.599Z,95.6
2023-11-05T23:00:00.619Z,96.1
2023-11-05T23:05:00.743Z,96.5
2023-11-05T23:10:00.627Z,96.5
2023-11-05T23:15:00.683Z,96.1
2023-11-05T23:55:00.489Z,96.9
